sensor_id;sensor_type;location;lat;lon;timestamp;pressure;altitude;pressure_sealevel;temperature;humidity
75938;BME280;64615;32.062;34.834;2023-02-08T00:01:08;101228.16;;;19.90;53.93
75938;BME280;64615;32.062;34.834;2023-02-08T00:03:34;101214.06;;;19.88;53.98
75938;BME280;64615;32.062;34.834;2023-02-08T00:06:01;101210.28;;;19.89;53.79
75938;BME280;64615;32.062;34.834;2023-02-08T00:08:26;101200.31;;;19.89;53.30
75938;BME280;64615;32.062;34.834;2023-02-08T00:10:52;101196.78;;;19.89;53.60
75938;BME280;64615;32.062;34.834;2023-02-08T00:13:18;101188.94;;;19.87;53.71
75938;BME280;64615;32.062;34.834;2023-02-08T00:15:45;101181.03;;;19.86;53.87
75938;BME280;64615;32.062;34.834;2023-02-08T00:18:11;101178.34;;;19.86;53.62
75938;BME280;64615;32.062;34.834;2023-02-08T00:20:38;101170.69;;;19.83;53.88
75938;BME280;64615;32.062;34.834;2023-02-08T00:23:04;101182.09;;;19.85;53.37
75938;BME280;64615;32.062;34.834;2023-02-08T00:25:30;101183.97;;;19.84;53.84
75938;BME280;64615;32.062;34.834;2023-02-08T00:27:56;101183.97;;;19.84;53.55
75938;BME280;64615;32.062;34.834;2023-02-08T00:30:22;101191.63;;;19.87;53.56
75938;BME280;64615;32.062;34.834;2023-02-08T00:32:48;101199.72;;;19.87;53.63
75938;BME280;64615;32.062;34.834;2023-02-08T00:35:13;101197.84;;;19.88;53.70
75938;BME280;64615;32.062;34.834;2023-02-08T00:37:39;101200.78;;;19.86;53.37
75938;BME280;64615;32.062;34.834;2023-02-08T00:40:05;101202.44;;;19.87;53.59
75938;BME280;64615;32.062;34.834;2023-02-08T00:42:31;101185.97;;;19.89;53.35
75938;BME280;64615;32.062;34.834;2023-02-08T00:44:56;101205.13;;;19.87;53.35
75938;BME280;64615;32.062;34.834;2023-02-08T00:47:23;101203.47;;;19.86;53.46
75938;BME280;64615;32.062;34.834;2023-02-08T00:49:49;101210.75;;;19.86;53.03
75938;BME280;64615;32.062;34.834;2023-02-08T00:52:14;101201.00;;;19.85;53.26
75938;BME280;64615;32.062;34.834;2023-02-08T00:54:40;101204.53;;;19.85;53.19
75938;BME280;64615;32.062;34.834;2023-02-08T00:57:06;101203.13;;;19.83;53.61
75938;BME280;64615;32.062;34.834;2023-02-08T00:59:32;101199.59;;;19.82;53.23
75938;BME280;64615;32.062;34.834;2023-02-08T01:01:58;101195.25;;;19.81;53.35
75938;BME280;64615;32.062;34.834;2023-02-08T01:04:24;101205.22;;;19.81;53.10
75938;BME280;64615;32.062;34.834;2023-02-08T01:06:49;101187.34;;;19.80;53.21
75938;BME280;64615;32.062;34.834;2023-02-08T01:09:15;101179.03;;;19.81;53.27
75938;BME280;64615;32.062;34.834;2023-02-08T01:11:41;101181.72;;;19.81;53.20
75938;BME280;64615;32.062;34.834;2023-02-08T01:14:06;101173.63;;;19.81;53.18
75938;BME280;64615;32.062;34.834;2023-02-08T01:16:33;101187.13;;;19.81;52.94
75938;BME280;64615;32.062;34.834;2023-02-08T01:19:00;101200.63;;;19.81;53.22
75938;BME280;64615;32.062;34.834;2023-02-08T01:21:31;101217.69;;;19.82;52.56
75938;BME280;64615;32.062;34.834;2023-02-08T01:23:57;101222.88;;;19.83;53.12
75938;BME280;64615;32.062;34.834;2023-02-08T01:26:24;101238.00;;;19.84;52.76
75938;BME280;64615;32.062;34.834;2023-02-08T01:28:51;101235.75;;;19.81;52.67
75938;BME280;64615;32.062;34.834;2023-02-08T01:31:26;101249.88;;;19.83;52.65
75938;BME280;64615;32.062;34.834;2023-02-08T01:33:53;101213.31;;;19.81;52.25
75938;BME280;64615;32.062;34.834;2023-02-08T01:36:19;101247.41;;;19.82;52.25
75938;BME280;64615;32.062;34.834;2023-02-08T01:38:46;101256.53;;;19.81;52.22
75938;BME280;64615;32.062;34.834;2023-02-08T01:41:27;101248.44;;;19.81;52.39
75938;BME280;64615;32.062;34.834;2023-02-08T01:46:33;101274.00;;;19.78;52.23
75938;BME280;64615;32.062;34.834;2023-02-08T01:49:15;101260.16;;;19.75;52.34
75938;BME280;64615;32.062;34.834;2023-02-08T01:51:56;101274.69;;;19.74;52.23
75938;BME280;64615;32.062;34.834;2023-02-08T01:54:27;101284.09;;;19.71;51.65
75938;BME280;64615;32.062;34.834;2023-02-08T01:56:54;101276.56;;;19.73;51.85
75938;BME280;64615;32.062;34.834;2023-02-08T01:59:28;101272.25;;;19.72;51.63
75938;BME280;64615;32.062;34.834;2023-02-08T02:01:58;101291.38;;;19.71;51.45
75938;BME280;64615;32.062;34.834;2023-02-08T02:04:25;101297.00;;;19.69;51.48
75938;BME280;64615;32.062;34.834;2023-02-08T02:06:54;101298.44;;;19.72;51.42
75938;BME280;64615;32.062;34.834;2023-02-08T02:09:39;101293.25;;;19.70;50.58
75938;BME280;64615;32.062;34.834;2023-02-08T02:12:07;101303.44;;;19.68;50.57
75938;BME280;64615;32.062;34.834;2023-02-08T02:14:34;101307.63;;;19.64;50.32
75938;BME280;64615;32.062;34.834;2023-02-08T02:17:02;101297.44;;;19.66;49.94
75938;BME280;64615;32.062;34.834;2023-02-08T02:43:20;101280.06;;;19.62;50.53
75938;BME280;64615;32.062;34.834;2023-02-08T02:51:34;101286.50;;;19.61;50.72
75938;BME280;64615;32.062;34.834;2023-02-08T02:54:07;101287.53;;;19.60;50.69
75938;BME280;64615;32.062;34.834;2023-02-08T02:56:42;101280.25;;;19.61;50.94
75938;BME280;64615;32.062;34.834;2023-02-08T02:59:11;101287.31;;;19.62;50.46
75938;BME280;64615;32.062;34.834;2023-02-08T03:01:39;101291.91;;;19.61;50.42
75938;BME280;64615;32.062;34.834;2023-02-08T03:04:16;101294.81;;;19.60;50.71
75938;BME280;64615;32.062;34.834;2023-02-08T03:24:00;101325.72;;;19.64;50.73
75938;BME280;64615;32.062;34.834;2023-02-08T03:26:36;101345.66;;;19.63;50.80
75938;BME280;64615;32.062;34.834;2023-02-08T03:32:20;101350.66;;;19.66;51.24
75938;BME280;64615;32.062;34.834;2023-02-08T03:37:27;101359.16;;;19.63;50.59
75938;BME280;64615;32.062;34.834;2023-02-08T03:40:09;101373.50;;;19.63;51.09
75938;BME280;64615;32.062;34.834;2023-02-08T03:42:36;101381.03;;;19.61;50.76
75938;BME280;64615;32.062;34.834;2023-02-08T03:45:25;101383.72;;;19.61;50.64
75938;BME280;64615;32.062;34.834;2023-02-08T03:47:56;101380.19;;;19.61;51.06
75938;BME280;64615;32.062;34.834;2023-02-08T03:50:26;101383.09;;;19.59;50.69
75938;BME280;64615;32.062;34.834;2023-02-08T03:52:54;101383.09;;;19.59;51.04
75938;BME280;64615;32.062;34.834;2023-02-08T03:55:24;101388.50;;;19.59;50.54
75938;BME280;64615;32.062;34.834;2023-02-08T03:58:20;101388.72;;;19.58;50.97
75938;BME280;64615;32.062;34.834;2023-02-08T04:00:45;101391.41;;;19.58;50.74
75938;BME280;64615;32.062;34.834;2023-02-08T04:03:23;101398.28;;;19.60;50.57
75938;BME280;64615;32.062;34.834;2023-02-08T04:05:49;101388.72;;;19.58;50.93
75938;BME280;64615;32.062;34.834;2023-02-08T04:08:15;101387.91;;;19.57;50.78
75938;BME280;64615;32.062;34.834;2023-02-08T04:10:41;101396.03;;;19.57;50.60
75938;BME280;64615;32.062;34.834;2023-02-08T04:13:06;101396.03;;;19.57;50.94
75938;BME280;64615;32.062;34.834;2023-02-08T04:15:32;101401.63;;;19.56;50.79
75938;BME280;64615;32.062;34.834;2023-02-08T04:17:58;101385.44;;;19.56;50.96
75938;BME280;64615;32.062;34.834;2023-02-08T04:20:23;101404.13;;;19.57;50.78
75938;BME280;64615;32.062;34.834;2023-02-08T04:22:49;101400.50;;;19.63;51.20
75938;BME280;64615;32.062;34.834;2023-02-08T04:25:16;101409.03;;;19.67;51.06
75938;BME280;64615;32.062;34.834;2023-02-08T04:27:41;101404.22;;;19.69;51.50
75938;BME280;64615;32.062;34.834;2023-02-08T04:30:07;101413.97;;;19.70;51.01
75938;BME280;64615;32.062;34.834;2023-02-08T04:32:33;101398.44;;;19.65;50.90
75938;BME280;64615;32.062;34.834;2023-02-08T04:34:59;101403.00;;;19.65;51.08
75938;BME280;64615;32.062;34.834;2023-02-08T04:37:24;101404.88;;;19.64;51.22
75938;BME280;64615;32.062;34.834;2023-02-08T04:39:50;101399.47;;;19.64;51.56
75938;BME280;64615;32.062;34.834;2023-02-08T04:42:16;101393.25;;;19.64;51.71
75938;BME280;64615;32.062;34.834;2023-02-08T04:44:41;101400.50;;;19.63;51.57
75938;BME280;64615;32.062;34.834;2023-02-08T04:47:07;101408.63;;;19.63;51.55
75938;BME280;64615;32.062;34.834;2023-02-08T04:49:33;101413.38;;;19.68;51.94
75938;BME280;64615;32.062;34.834;2023-02-08T04:51:58;101398.38;;;19.72;51.26
75938;BME280;64615;32.062;34.834;2023-02-08T04:54:24;101423.72;;;19.71;51.28
75938;BME280;64615;32.062;34.834;2023-02-08T04:56:50;101419.38;;;19.70;51.90
75938;BME280;64615;32.062;34.834;2023-02-08T04:59:15;101426.22;;;19.72;51.73
75938;BME280;64615;32.062;34.834;2023-02-08T05:01:41;101429.28;;;19.76;51.74
75938;BME280;64615;32.062;34.834;2023-02-08T05:04:07;101420.34;;;19.75;51.12
75938;BME280;64615;32.062;34.834;2023-02-08T05:06:32;101441.34;;;19.73;50.78
75938;BME280;64615;32.062;34.834;2023-02-08T05:08:58;101440.59;;;19.66;50.99
75938;BME280;64615;32.062;34.834;2023-02-08T05:11:24;101428.59;;;19.62;50.89
75938;BME280;64615;32.062;34.834;2023-02-08T05:13:50;101440.19;;;19.63;51.08
75938;BME280;64615;32.062;34.834;2023-02-08T05:16:16;101455.78;;;19.67;50.92
75938;BME280;64615;32.062;34.834;2023-02-08T05:18:42;101449.28;;;19.68;50.97
75938;BME280;64615;32.062;34.834;2023-02-08T05:21:09;101453.66;;;19.69;51.47
75938;BME280;64615;32.062;34.834;2023-02-08T05:23:35;101453.66;;;19.69;51.16
75938;BME280;64615;32.062;34.834;2023-02-08T05:26:06;101452.63;;;19.70;50.75
75938;BME280;64615;32.062;34.834;2023-02-08T05:28:31;101451.56;;;19.71;51.53
75938;BME280;64615;32.062;34.834;2023-02-08T05:30:57;101464.25;;;19.71;51.22
75938;BME280;64615;32.062;34.834;2023-02-08T05:33:23;101470.84;;;19.75;51.41
75938;BME280;64615;32.062;34.834;2023-02-08T05:35:48;101470.19;;;19.79;51.75
75938;BME280;64615;32.062;34.834;2023-02-08T05:38:14;101487.53;;;19.72;51.54
75938;BME280;64615;32.062;34.834;2023-02-08T05:40:39;101469.97;;;19.81;52.12
75938;BME280;64615;32.062;34.834;2023-02-08T05:43:05;101469.16;;;19.80;51.90
75938;BME280;64615;32.062;34.834;2023-02-08T05:45:31;101478.13;;;19.74;52.09
75938;BME280;64615;32.062;34.834;2023-02-08T05:47:57;101483.09;;;19.77;51.91
75938;BME280;64615;32.062;34.834;2023-02-08T05:50:23;101488.06;;;19.80;52.11
75938;BME280;64615;32.062;34.834;2023-02-08T05:52:48;101489.34;;;19.78;52.19
75938;BME280;64615;32.062;34.834;2023-02-08T05:55:14;101487.22;;;19.80;51.65
75938;BME280;64615;32.062;34.834;2023-02-08T05:57:39;101488.72;;;19.76;51.71
75938;BME280;64615;32.062;34.834;2023-02-08T06:00:05;101496.81;;;19.76;51.71
75938;BME280;64615;32.062;34.834;2023-02-08T06:02:31;101513.88;;;19.76;51.64
75938;BME280;64615;32.062;34.834;2023-02-08T06:04:57;101502.59;;;19.79;51.73
75938;BME280;64615;32.062;34.834;2023-02-08T06:07:23;101514.66;;;19.83;52.09
75938;BME280;64615;32.062;34.834;2023-02-08T06:09:49;101519.22;;;19.83;52.27
75938;BME280;64615;32.062;34.834;2023-02-08T06:12:14;101519.44;;;19.81;51.58
75938;BME280;64615;32.062;34.834;2023-02-08T06:14:40;101502.03;;;19.77;51.68
75938;BME280;64615;32.062;34.834;2023-02-08T06:17:06;101507.63;;;19.76;51.91
75938;BME280;64615;32.062;34.834;2023-02-08T06:19:32;101505.56;;;19.78;51.21
75938;BME280;64615;32.062;34.834;2023-02-08T06:21:58;101497.44;;;19.78;51.76
75938;BME280;64615;32.062;34.834;2023-02-08T06:24:24;101515.53;;;19.77;52.30
75938;BME280;64615;32.062;34.834;2023-02-08T06:26:49;101517.63;;;19.75;51.99
75938;BME280;64615;32.062;34.834;2023-02-08T06:29:15;101541.09;;;19.75;51.49
75938;BME280;64615;32.062;34.834;2023-02-08T06:31:41;101544.41;;;19.77;51.95
75938;BME280;64615;32.062;34.834;2023-02-08T06:34:07;101543.75;;;21.52;47.92
75938;BME280;64615;32.062;34.834;2023-02-08T06:36:32;101537.81;;;23.58;42.97
75938;BME280;64615;32.062;34.834;2023-02-08T06:38:58;101538.13;;;25.05;39.67
75938;BME280;64615;32.062;34.834;2023-02-08T06:41:24;101548.16;;;26.17;37.70
75938;BME280;64615;32.062;34.834;2023-02-08T06:43:49;101551.97;;;26.95;35.71
75938;BME280;64615;32.062;34.834;2023-02-08T06:46:15;101552.38;;;27.54;35.09
75938;BME280;64615;32.062;34.834;2023-02-08T06:48:40;101562.00;;;27.97;34.12
75938;BME280;64615;32.062;34.834;2023-02-08T06:51:06;101556.53;;;27.97;34.40
75938;BME280;64615;32.062;34.834;2023-02-08T06:53:32;101568.56;;;27.96;34.60
75938;BME280;64615;32.062;34.834;2023-02-08T06:55:57;101585.28;;;28.20;34.43
75938;BME280;64615;32.062;34.834;2023-02-08T06:58:23;101563.06;;;28.32;34.44
75938;BME280;64615;32.062;34.834;2023-02-08T07:00:48;101569.81;;;28.70;33.74
75938;BME280;64615;32.062;34.834;2023-02-08T07:03:14;101573.13;;;28.72;33.86
75938;BME280;64615;32.062;34.834;2023-02-08T07:05:43;101580.75;;;28.85;33.43
75938;BME280;64615;32.062;34.834;2023-02-08T07:08:09;101591.66;;;29.00;33.27
75938;BME280;64615;32.062;34.834;2023-02-08T07:10:37;101576.25;;;29.14;33.22
75938;BME280;64615;32.062;34.834;2023-02-08T07:13:05;101575.47;;;29.09;33.08
75938;BME280;64615;32.062;34.834;2023-02-08T07:15:31;101570.19;;;29.17;33.00
75938;BME280;64615;32.062;34.834;2023-02-08T07:17:57;101582.19;;;29.36;32.62
75938;BME280;64615;32.062;34.834;2023-02-08T07:20:23;101579.44;;;29.41;32.66
75938;BME280;64615;32.062;34.834;2023-02-08T07:22:49;101577.69;;;29.56;32.45
75938;BME280;64615;32.062;34.834;2023-02-08T07:25:15;101582.91;;;29.57;32.50
75938;BME280;64615;32.062;34.834;2023-02-08T07:27:40;101585.53;;;29.72;32.67
75938;BME280;64615;32.062;34.834;2023-02-08T07:30:06;101568.97;;;29.82;32.21
75938;BME280;64615;32.062;34.834;2023-02-08T07:32:33;101577.69;;;29.95;32.12
75938;BME280;64615;32.062;34.834;2023-02-08T07:34:59;101574.25;;;30.13;32.00
75938;BME280;64615;32.062;34.834;2023-02-08T07:37:25;101580.25;;;30.15;32.10
75938;BME280;64615;32.062;34.834;2023-02-08T07:39:50;101576.72;;;30.14;32.15
75938;BME280;64615;32.062;34.834;2023-02-08T07:42:16;101595.06;;;30.19;32.09
75938;BME280;64615;32.062;34.834;2023-02-08T07:44:42;101578.59;;;27.40;36.88
75938;BME280;64615;32.062;34.834;2023-02-08T07:47:08;101578.53;;;25.62;39.47
75938;BME280;64615;32.062;34.834;2023-02-08T07:49:33;101581.25;;;24.53;42.23
75938;BME280;64615;32.062;34.834;2023-02-08T07:52:00;101580.59;;;23.79;43.93
75938;BME280;64615;32.062;34.834;2023-02-08T07:54:27;101578.31;;;23.31;44.95
75938;BME280;64615;32.062;34.834;2023-02-08T07:56:52;101576.28;;;22.98;45.91
75938;BME280;64615;32.062;34.834;2023-02-08T07:59:18;101572.22;;;22.72;46.76
75938;BME280;64615;32.062;34.834;2023-02-08T08:01:44;101572.56;;;22.53;47.19
75938;BME280;64615;32.062;34.834;2023-02-08T08:04:09;101581.41;;;22.36;47.63
75938;BME280;64615;32.062;34.834;2023-02-08T08:06:35;101578.94;;;22.23;47.80
75938;BME280;64615;32.062;34.834;2023-02-08T08:09:01;101574.34;;;22.12;47.70
75938;BME280;64615;32.062;34.834;2023-02-08T08:11:26;101584.09;;;22.02;48.22
75938;BME280;64615;32.062;34.834;2023-02-08T08:13:52;101564.00;;;21.91;48.30
75938;BME280;64615;32.062;34.834;2023-02-08T08:16:18;101585.44;;;21.81;48.43
75938;BME280;64615;32.062;34.834;2023-02-08T08:18:44;101586.59;;;21.73;48.85
75938;BME280;64615;32.062;34.834;2023-02-08T08:21:10;101591.28;;;21.66;48.72
75938;BME280;64615;32.062;34.834;2023-02-08T08:23:36;101577.84;;;21.60;48.66
75938;BME280;64615;32.062;34.834;2023-02-08T08:26:13;101585.69;;;21.49;48.94
75938;BME280;64615;32.062;34.834;2023-02-08T08:28:40;101591.81;;;21.45;48.59
75938;BME280;64615;32.062;34.834;2023-02-08T08:31:10;101603.34;;;21.40;48.52
75938;BME280;64615;32.062;34.834;2023-02-08T08:33:36;101595.66;;;21.37;48.66
75938;BME280;64615;32.062;34.834;2023-02-08T08:36:01;101594.81;;;21.37;48.89
75938;BME280;64615;32.062;34.834;2023-02-08T08:38:27;101599.88;;;21.33;48.63
75938;BME280;64615;32.062;34.834;2023-02-08T08:40:52;101591.59;;;21.28;49.15
75938;BME280;64615;32.062;34.834;2023-02-08T08:43:18;101605.84;;;21.24;48.83
75938;BME280;64615;32.062;34.834;2023-02-08T08:45:44;101597.19;;;21.15;48.99
75938;BME280;64615;32.062;34.834;2023-02-08T08:48:09;101590.13;;;21.14;49.15
75938;BME280;64615;32.062;34.834;2023-02-08T08:50:35;101599.50;;;21.11;49.43
75938;BME280;64615;32.062;34.834;2023-02-08T08:53:01;101591.00;;;21.08;49.17
75938;BME280;64615;32.062;34.834;2023-02-08T08:55:26;101601.06;;;21.01;49.11
75938;BME280;64615;32.062;34.834;2023-02-08T08:57:52;101594.47;;;20.97;49.23
75938;BME280;64615;32.062;34.834;2023-02-08T09:00:18;101594.31;;;20.92;49.86
75938;BME280;64615;32.062;34.834;2023-02-08T09:02:44;101590.84;;;20.85;49.77
75938;BME280;64615;32.062;34.834;2023-02-08T09:05:09;101599.19;;;20.83;49.68
75938;BME280;64615;32.062;34.834;2023-02-08T09:07:35;101578.81;;;20.81;49.42
75938;BME280;64615;32.062;34.834;2023-02-08T09:10:01;101597.31;;;20.84;49.51
75938;BME280;64615;32.062;34.834;2023-02-08T09:12:27;101574.69;;;20.78;49.53
75938;BME280;64615;32.062;34.834;2023-02-08T09:14:53;101581.53;;;20.81;49.51
75938;BME280;64615;32.062;34.834;2023-02-08T09:17:18;101586.56;;;20.77;49.29
75938;BME280;64615;32.062;34.834;2023-02-08T09:19:44;101594.28;;;20.73;49.21
75938;BME280;64615;32.062;34.834;2023-02-08T09:22:12;101605.59;;;20.70;49.08
75938;BME280;64615;32.062;34.834;2023-02-08T09:24:38;101595.19;;;20.67;49.25
75938;BME280;64615;32.062;34.834;2023-02-08T09:27:04;101598.13;;;20.66;49.13
75938;BME280;64615;32.062;34.834;2023-02-08T09:29:30;101611.66;;;20.66;48.89
75938;BME280;64615;32.062;34.834;2023-02-08T09:31:58;101605.44;;;20.65;49.65
75938;BME280;64615;32.062;34.834;2023-02-08T09:34:24;101615.41;;;20.65;49.43
75938;BME280;64615;32.062;34.834;2023-02-08T09:36:49;101605.06;;;20.62;49.55
75938;BME280;64615;32.062;34.834;2023-02-08T09:39:20;101601.53;;;20.61;49.67
75938;BME280;64615;32.062;34.834;2023-02-08T09:47:40;101594.81;;;20.64;49.46
75938;BME280;64615;32.062;34.834;2023-02-08T09:50:39;101602.34;;;20.62;49.28
75938;BME280;64615;32.062;34.834;2023-02-08T09:55:58;101590.97;;;20.53;48.99
75938;BME280;64615;32.062;34.834;2023-02-08T09:58:32;101594.34;;;20.49;49.30
75938;BME280;64615;32.062;34.834;2023-02-08T10:00:59;101588.28;;;20.53;49.38
75938;BME280;64615;32.062;34.834;2023-02-08T10:05:56;101560.78;;;20.56;48.34
75938;BME280;64615;32.062;34.834;2023-02-08T10:08:21;101563.09;;;20.53;48.46
75938;BME280;64615;32.062;34.834;2023-02-08T10:10:58;101571.00;;;20.54;48.86
75938;BME280;64615;32.062;34.834;2023-02-08T10:18:56;101568.31;;;20.73;48.82
75938;BME280;64615;32.062;34.834;2023-02-08T10:37:17;101553.34;;;20.70;48.82
75938;BME280;64615;32.062;34.834;2023-02-08T10:39:44;101557.31;;;20.67;49.07
75938;BME280;64615;32.062;34.834;2023-02-08T10:42:16;101563.81;;;20.66;48.87
75938;BME280;64615;32.062;34.834;2023-02-08T10:44:59;101552.38;;;20.64;49.38
75938;BME280;64615;32.062;34.834;2023-02-08T10:47:50;101543.19;;;20.65;49.32
75938;BME280;64615;32.062;34.834;2023-02-08T10:50:36;101546.50;;;20.67;49.42
75938;BME280;64615;32.062;34.834;2023-02-08T10:53:04;101539.66;;;20.65;49.19
75938;BME280;64615;32.062;34.834;2023-02-08T10:55:31;101538.56;;;20.73;49.32
75938;BME280;64615;32.062;34.834;2023-02-08T10:58:01;101530.03;;;20.69;49.42
75938;BME280;64615;32.062;34.834;2023-02-08T11:00:33;101536.13;;;20.64;49.08
75938;BME280;64615;32.062;34.834;2023-02-08T11:03:12;101537.25;;;20.57;49.34
75938;BME280;64615;32.062;34.834;2023-02-08T11:05:39;101545.81;;;20.54;49.25
75938;BME280;64615;32.062;34.834;2023-02-08T11:08:10;101562.94;;;20.48;49.04
75938;BME280;64615;32.062;34.834;2023-02-08T11:10:39;101545.88;;;20.47;49.86
75938;BME280;64615;32.062;34.834;2023-02-08T11:20:55;101574.28;;;20.38;49.75
75938;BME280;64615;32.062;34.834;2023-02-08T11:23:25;101578.03;;;20.37;49.41
75938;BME280;64615;32.062;34.834;2023-02-08T11:25:53;101581.34;;;20.39;49.21
75938;BME280;64615;32.062;34.834;2023-02-08T11:28:27;101581.13;;;20.41;49.18
75938;BME280;64615;32.062;34.834;2023-02-08T11:30:54;101579.47;;;20.40;48.81
75938;BME280;64615;32.062;34.834;2023-02-08T11:33:20;101578.44;;;20.41;48.83
75938;BME280;64615;32.062;34.834;2023-02-08T11:35:59;101585.72;;;20.40;49.04
75938;BME280;64615;32.062;34.834;2023-02-08T11:38:26;101588.63;;;20.39;49.38
75938;BME280;64615;32.062;34.834;2023-02-08T11:40:55;101594.50;;;20.36;48.62
75938;BME280;64615;32.062;34.834;2023-02-08T11:43:29;101582.59;;;20.37;48.91
75938;BME280;64615;32.062;34.834;2023-02-08T11:45:57;101586.59;;;20.34;49.02
75938;BME280;64615;32.062;34.834;2023-02-08T11:49:12;101567.88;;;20.33;49.03
75938;BME280;64615;32.062;34.834;2023-02-08T11:51:21;101583.06;;;20.34;49.44
75938;BME280;64615;32.062;34.834;2023-02-08T11:53:48;101586.59;;;20.34;49.38
75938;BME280;64615;32.062;34.834;2023-02-08T11:56:22;101587.19;;;20.36;49.43
75938;BME280;64615;32.062;34.834;2023-02-08T11:59:14;101589.88;;;20.36;49.16
75938;BME280;64615;32.062;34.834;2023-02-08T12:01:41;101583.06;;;20.34;49.31
75938;BME280;64615;32.062;34.834;2023-02-08T12:04:13;101581.00;;;20.29;49.25
75938;BME280;64615;32.062;34.834;2023-02-08T12:15:17;101568.97;;;20.25;48.93
75938;BME280;64615;32.062;34.834;2023-02-08T12:18:16;101569.41;;;20.22;48.96
75938;BME280;64615;32.062;34.834;2023-02-08T12:20:45;101580.66;;;20.19;49.49
75938;BME280;64615;32.062;34.834;2023-02-08T12:23:23;101579.63;;;20.20;49.13
75938;BME280;64615;32.062;34.834;2023-02-08T12:26:14;101582.75;;;20.17;48.95
75938;BME280;64615;32.062;34.834;2023-02-08T12:32:16;101589.88;;;20.11;48.80
75938;BME280;64615;32.062;34.834;2023-02-08T12:37:56;101577.38;;;20.10;48.75
75938;BME280;64615;32.062;34.834;2023-02-08T12:54:19;101594.03;;;20.14;48.72
75938;BME280;64615;32.062;34.834;2023-02-08T12:56:49;101601.97;;;20.09;49.14
75938;BME280;64615;32.062;34.834;2023-02-08T12:59:43;101599.91;;;20.04;48.92
75938;BME280;64615;32.062;34.834;2023-02-08T13:02:28;101598.84;;;20.05;48.79
75938;BME280;64615;32.062;34.834;2023-02-08T13:04:59;101604.88;;;20.07;49.19
75938;BME280;64615;32.062;34.834;2023-02-08T13:10:12;101613.44;;;20.04;48.94
75938;BME280;64615;32.062;34.834;2023-02-08T13:12:48;101586.41;;;20.04;49.20
75938;BME280;64615;32.062;34.834;2023-02-08T13:15:21;101606.13;;;20.05;49.07
75938;BME280;64615;32.062;34.834;2023-02-08T13:17:53;101626.28;;;20.09;48.63
75938;BME280;64615;32.062;34.834;2023-02-08T13:20:36;101630.03;;;20.08;48.68
75938;BME280;64615;32.062;34.834;2023-02-08T13:25:59;101621.13;;;20.01;48.84
75938;BME280;64615;32.062;34.834;2023-02-08T13:28:27;101625.31;;;19.97;48.77
75938;BME280;64615;32.062;34.834;2023-02-08T13:31:03;101618.25;;;19.96;49.06
75938;BME280;64615;32.062;34.834;2023-02-08T13:33:54;101613.03;;;20.01;48.79
75938;BME280;64615;32.062;34.834;2023-02-08T13:36:25;101619.63;;;20.05;48.60
75938;BME280;64615;32.062;34.834;2023-02-08T13:38:52;101616.94;;;20.05;48.97
75938;BME280;64615;32.062;34.834;2023-02-08T13:41:20;101612.16;;;20.07;48.97
75938;BME280;64615;32.062;34.834;2023-02-08T13:46:21;101613.66;;;20.03;49.10
75938;BME280;64615;32.062;34.834;2023-02-08T13:48:57;101618.59;;;20.06;49.03
75938;BME280;64615;32.062;34.834;2023-02-08T13:56:48;101612.38;;;20.05;48.92
75938;BME280;64615;32.062;34.834;2023-02-08T14:07:55;101629.41;;;20.06;49.20
75938;BME280;64615;32.062;34.834;2023-02-08T14:10:27;101631.53;;;20.04;49.56
75938;BME280;64615;32.062;34.834;2023-02-08T14:16:40;101637.13;;;20.02;49.33
75938;BME280;64615;32.062;34.834;2023-02-08T14:24:33;101646.78;;;19.92;49.24
75938;BME280;64615;32.062;34.834;2023-02-08T14:27:15;101654.06;;;19.91;49.66
75938;BME280;64615;32.062;34.834;2023-02-08T14:32:30;101646.41;;;19.88;49.31
75938;BME280;64615;32.062;34.834;2023-02-08T14:35:02;101656.56;;;19.86;49.36
75938;BME280;64615;32.062;34.834;2023-02-08T14:37:34;101654.53;;;19.81;49.54
75938;BME280;64615;32.062;34.834;2023-02-08T14:42:57;101659.94;;;19.81;48.97
75938;BME280;64615;32.062;34.834;2023-02-08T14:45:37;101651.44;;;19.78;48.97
75938;BME280;64615;32.062;34.834;2023-02-08T14:48:19;101651.66;;;19.76;48.90
75938;BME280;64615;32.062;34.834;2023-02-08T14:59:12;101660.81;;;19.69;49.03
75938;BME280;64615;32.062;34.834;2023-02-08T15:01:51;101664.59;;;19.68;48.80
75938;BME280;64615;32.062;34.834;2023-02-08T15:04:18;101665.84;;;19.65;49.22
75938;BME280;64615;32.062;34.834;2023-02-08T15:09:47;101674.38;;;19.62;49.11
75938;BME280;64615;32.062;34.834;2023-02-08T15:12:15;101692.47;;;19.62;48.60
75938;BME280;64615;32.062;34.834;2023-02-08T15:14:42;101693.69;;;19.59;48.79
75938;BME280;64615;32.062;34.834;2023-02-08T15:17:41;101700.16;;;19.58;48.56
75938;BME280;64615;32.062;34.834;2023-02-08T15:20:16;101707.22;;;19.59;48.76
75938;BME280;64615;32.062;34.834;2023-02-08T15:22:43;101703.28;;;19.55;48.50
75938;BME280;64615;32.062;34.834;2023-02-08T15:25:32;101701.63;;;19.54;48.66
75938;BME280;64615;32.062;34.834;2023-02-08T15:28:01;101707.03;;;19.54;48.38
75938;BME280;64615;32.062;34.834;2023-02-08T15:30:37;101713.47;;;19.53;48.44
75938;BME280;64615;32.062;34.834;2023-02-08T15:33:09;101718.88;;;19.53;48.47
75938;BME280;64615;32.062;34.834;2023-02-08T15:35:39;101722.81;;;19.57;48.69
75938;BME280;64615;32.062;34.834;2023-02-08T15:38:14;101726.13;;;19.59;48.73
75938;BME280;64615;32.062;34.834;2023-02-08T15:40:41;101732.16;;;19.55;48.53
75938;BME280;64615;32.062;34.834;2023-02-08T15:45:33;101740.69;;;19.52;48.37